Terminal Aerodrome Forecast
Issued by NWS Blacksburg, VA

Current Version | Previous Version | Graphics & Text | Print | Product List | Glossary On
Versions: 1 2 3 4 5 6 7 8 9 10 11 12 13 14 15 16 17 18 19 20 21 22 23 24 25 26
584
FTUS41 KRNK 262205 AAA
TAFBLF
TAF AMD
KBLF 262205Z 2622/2718 25009KT P6SM BKN060
     FM270200 25005KT 4SM BR SCT015 OVC050
     FM271300 21004KT P6SM SCT040 BKN100
     FM271700 00000KT P6SM OVC040=

USA.gov is the U.S. government's official web portal to all federal, state and local government web resources and services.